Time;durP1;ratioP1;P1;durP2;ratioP2;P2;SDS_P1;SDS_P2;PMS_P1;PMS_P2;Temp;Humidity;BMP_temperature;BMP_pressure;BME280_temperature;BME280_humidity;BME280_pressure;Samples;Min_cycle;Max_cycle;Signal;HPM_P1;HPM_P2
2024/01/29 00:01:04;;;;;;;3.83;3.30;;;7.30;72.70;;;;;;6124824;23;20025;-76
2024/01/29 00:03:30;;;;;;;4.00;3.33;;;7.30;72.70;;;;;;6151980;23;20539;-75
2024/01/29 00:05:56;;;;;;;4.10;3.10;;;7.30;72.70;;;;;;6152003;23;20021;-78
2024/01/29 00:08:22;;;;;;;3.70;3.22;;;7.30;72.60;;;;;;6151927;23;20364;-76
2024/01/29 00:10:48;;;;;;;4.18;3.10;;;7.30;72.70;;;;;;6152615;23;20013;-76
2024/01/29 00:13:14;;;;;;;3.67;3.08;;;7.30;72.70;;;;;;6152179;23;20522;-76
2024/01/29 00:15:40;;;;;;;4.00;3.30;;;7.30;72.70;;;;;;6152101;23;20022;-76
2024/01/29 00:18:06;;;;;;;3.85;3.45;;;7.30;72.70;;;;;;6150227;23;20041;-76
2024/01/29 00:20:32;;;;;;;4.28;3.40;;;7.30;72.70;;;;;;6151888;23;20013;-76
2024/01/29 00:22:58;;;;;;;3.28;2.97;;;7.20;72.50;;;;;;6152316;23;20013;-77
2024/01/29 00:25:24;;;;;;;3.70;3.20;;;7.30;72.60;;;;;;6149371;23;20021;-76
2024/01/29 00:27:50;;;;;;;3.78;3.35;;;7.20;73.00;;;;;;6151797;23;20021;-76
2024/01/29 00:30:16;;;;;;;4.85;3.78;;;7.30;72.40;;;;;;6151834;23;20037;-75
2024/01/29 00:32:42;;;;;;;3.83;3.42;;;7.20;72.30;;;;;;6150892;23;20009;-76
2024/01/29 00:35:08;;;;;;;4.00;3.22;;;7.20;72.40;;;;;;6148033;23;20024;-76
2024/01/29 00:37:34;;;;;;;4.03;3.30;;;7.20;72.30;;;;;;6148862;23;20013;-76
2024/01/29 00:40:00;;;;;;;3.55;2.92;;;7.20;72.30;;;;;;6123765;23;20025;-76
2024/01/29 00:42:26;;;;;;;4.35;3.58;;;7.20;72.30;;;;;;6148380;23;20499;-76
2024/01/29 00:44:52;;;;;;;4.40;3.65;;;7.20;72.30;;;;;;6122973;23;20100;-76
2024/01/29 00:47:20;;;;;;;4.80;4.07;;;7.20;72.30;;;;;;6149851;23;20089;-77
2024/01/29 00:49:46;;;;;;;4.43;3.25;;;7.20;72.40;;;;;;6125658;23;20016;-76
2024/01/29 00:52:12;;;;;;;4.43;3.40;;;7.20;72.40;;;;;;6151289;23;20838;-77
2024/01/29 00:54:38;;;;;;;4.22;3.45;;;7.20;72.40;;;;;;6150180;23;20121;-76
2024/01/29 00:57:04;;;;;;;4.22;3.55;;;7.20;72.50;;;;;;6126119;23;20132;-76
2024/01/29 00:59:30;;;;;;;4.70;3.80;;;7.20;72.40;;;;;;6151594;23;20021;-76
2024/01/29 01:01:56;;;;;;;5.10;3.55;;;7.10;72.30;;;;;;6152205;23;20535;-77
2024/01/29 01:04:22;;;;;;;3.88;3.50;;;7.10;72.30;;;;;;6125771;23;20052;-76
2024/01/29 01:06:48;;;;;;;4.40;3.47;;;7.20;72.40;;;;;;6151911;23;20532;-76
2024/01/29 01:09:14;;;;;;;4.18;3.78;;;7.10;72.40;;;;;;6151711;23;20021;-77
2024/01/29 01:11:43;;;;;;;4.88;3.88;;;7.20;72.60;;;;;;6125430;23;20025;-76
2024/01/29 01:14:09;;;;;;;4.35;3.60;;;7.10;72.50;;;;;;6125491;23;20129;-76
2024/01/29 01:16:35;;;;;;;5.22;4.25;;;7.10;72.60;;;;;;6126323;23;20017;-76
2024/01/29 01:19:01;;;;;;;4.50;3.92;;;7.10;72.60;;;;;;6151534;23;20369;-76
2024/01/29 01:21:27;;;;;;;5.53;4.18;;;7.10;72.60;;;;;;6151048;23;20021;-76
2024/01/29 01:23:53;;;;;;;4.95;3.85;;;7.10;72.60;;;;;;6151738;23;20446;-76
2024/01/29 01:26:19;;;;;;;6.22;4.28;;;7.10;72.70;;;;;;6152659;23;20024;-76
2024/01/29 01:28:45;;;;;;;4.93;3.80;;;7.10;72.70;;;;;;6153798;23;20104;-76
2024/01/29 01:31:11;;;;;;;5.40;3.90;;;7.10;72.60;;;;;;6151962;23;20465;-76
2024/01/29 01:33:37;;;;;;;4.82;4.20;;;7.10;72.60;;;;;;6151969;23;20017;-76
2024/01/29 01:36:04;;;;;;;4.32;3.65;;;7.10;72.70;;;;;;6100840;23;20483;-76
2024/01/29 01:38:29;;;;;;;4.38;3.97;;;7.10;72.70;;;;;;6125288;23;20096;-76
2024/01/29 01:40:55;;;;;;;5.22;3.95;;;7.10;72.60;;;;;;6125857;23;20040;-77
2024/01/29 01:43:26;;;;;;;4.95;4.05;;;7.10;72.60;;;;;;6151174;23;20472;-76
2024/01/29 01:46:17;;;;;;;5.88;4.15;;;7.10;72.60;;;;;;6149546;23;20021;-76
2024/01/29 01:48:43;;;;;;;5.18;4.35;;;7.10;72.50;;;;;;6125413;23;20105;-76
2024/01/29 01:51:10;;;;;;;5.05;4.20;;;7.10;72.60;;;;;;6151064;23;20022;-76
2024/01/29 01:53:38;;;;;;;4.38;3.75;;;7.10;72.60;;;;;;6151450;23;20017;-76
2024/01/29 01:56:06;;;;;;;4.95;3.95;;;7.10;72.60;;;;;;6152150;23;20013;-77
2024/01/29 01:58:36;;;;;;;4.55;3.70;;;7.10;72.40;;;;;;6124692;23;20132;-75
2024/01/29 02:01:02;;;;;;;5.90;4.38;;;7.10;72.60;;;;;;6150468;23;20071;-76
2024/01/29 02:03:28;;;;;;;5.13;4.10;;;7.00;72.50;;;;;;6151117;23;20028;-77
2024/01/29 02:05:55;;;;;;;4.78;3.83;;;7.10;72.70;;;;;;6150996;23;20365;-76
2024/01/29 02:08:21;;;;;;;5.90;4.43;;;7.10;72.70;;;;;;6151135;23;20013;-77
2024/01/29 02:10:49;;;;;;;5.07;4.13;;;7.10;72.70;;;;;;6151667;23;20016;-77
2024/01/29 02:13:15;;;;;;;5.13;4.20;;;7.10;72.60;;;;;;6150630;23;20125;-77
2024/01/29 02:15:42;;;;;;;4.72;4.10;;;7.10;72.50;;;;;;6125064;23;20025;-76
2024/01/29 02:18:08;;;;;;;5.57;4.82;;;7.00;72.50;;;;;;6149556;23;20010;-76
2024/01/29 02:20:34;;;;;;;5.38;4.22;;;7.00;72.50;;;;;;6150845;23;20017;-76
2024/01/29 02:23:01;;;;;;;5.00;4.05;;;7.00;72.50;;;;;;6151606;23;20013;-78
2024/01/29 02:25:27;;;;;;;5.43;4.20;;;7.00;72.40;;;;;;6125061;23;20636;-75
2024/01/29 02:27:53;;;;;;;5.95;4.63;;;7.00;73.10;;;;;;6151423;23;20064;-76
2024/01/29 02:30:19;;;;;;;5.65;4.18;;;7.00;72.40;;;;;;6124717;23;20013;-77
2024/01/29 02:32:45;;;;;;;5.60;4.30;;;7.00;72.40;;;;;;6152375;23;20015;-76
2024/01/29 02:35:11;;;;;;;4.75;4.10;;;7.00;72.30;;;;;;6149688;23;20018;-76
2024/01/29 02:37:37;;;;;;;4.78;4.25;;;7.00;72.30;;;;;;6151749;23;20014;-76
2024/01/29 02:40:04;;;;;;;5.35;4.05;;;7.00;72.30;;;;;;6124537;23;20032;-76
2024/01/29 02:42:30;;;;;;;6.10;4.38;;;7.00;72.30;;;;;;6124852;23;20104;-76
2024/01/29 02:44:56;;;;;;;6.32;4.38;;;7.00;72.30;;;;;;6124237;23;20025;-77
2024/01/29 02:47:22;;;;;;;5.63;4.18;;;7.00;72.40;;;;;;6150976;23;20010;-77
2024/01/29 02:49:48;;;;;;;4.05;3.65;;;7.00;72.30;;;;;;6149728;23;20093;-77
2024/01/29 02:52:15;;;;;;;5.22;4.15;;;7.00;72.30;;;;;;6149111;23;20088;-78
2024/01/29 02:54:41;;;;;;;5.18;4.40;;;7.00;72.20;;;;;;6150731;23;20109;-77
2024/01/29 02:57:07;;;;;;;5.60;4.40;;;7.00;72.80;;;;;;6150753;23;20045;-76
2024/01/29 02:59:33;;;;;;;5.20;4.18;;;7.00;72.10;;;;;;6150187;23;20072;-76
2024/01/29 03:02:00;;;;;;;5.70;4.50;;;7.00;72.10;;;;;;6151173;23;20013;-75
2024/01/29 03:04:26;;;;;;;5.93;4.20;;;7.00;72.10;;;;;;6150850;23;20067;-77
2024/01/29 03:06:52;;;;;;;5.18;4.30;;;7.00;72.20;;;;;;6150960;23;20517;-77
2024/01/29 03:09:18;;;;;;;6.18;3.92;;;7.00;72.20;;;;;;6124295;23;20100;-77
2024/01/29 03:11:44;;;;;;;5.60;4.65;;;7.00;72.20;;;;;;6151043;23;20022;-77
2024/01/29 03:14:10;;;;;;;4.90;3.88;;;6.90;72.00;;;;;;6150793;23;20021;-77
2024/01/29 03:16:36;;;;;;;5.57;3.95;;;7.00;72.10;;;;;;6125431;23;20001;-78
2024/01/29 03:19:02;;;;;;;4.95;3.85;;;7.00;72.20;;;;;;6150666;23;20017;-77
2024/01/29 03:21:29;;;;;;;5.20;3.78;;;6.90;72.10;;;;;;6149229;23;20123;-78
2024/01/29 03:23:55;;;;;;;6.72;4.53;;;6.90;72.00;;;;;;6124043;23;20014;-76
2024/01/29 03:26:22;;;;;;;5.50;4.25;;;7.00;72.10;;;;;;6150489;23;20352;-76
2024/01/29 03:28:48;;;;;;;4.93;3.92;;;6.90;72.00;;;;;;6149518;23;20161;-76
2024/01/29 03:31:14;;;;;;;4.60;4.10;;;6.90;71.90;;;;;;6124121;23;20092;-76
2024/01/29 03:33:40;;;;;;;6.20;4.05;;;6.90;71.90;;;;;;6150522;23;20445;-76
2024/01/29 03:36:07;;;;;;;4.57;3.75;;;6.90;71.90;;;;;;6150376;23;20013;-77
2024/01/29 03:38:34;;;;;;;4.53;3.90;;;6.90;71.90;;;;;;6150384;23;20507;-76
2024/01/29 03:41:00;;;;;;;4.18;3.70;;;6.90;71.90;;;;;;6150266;23;20013;-76
2024/01/29 03:43:27;;;;;;;4.43;3.45;;;6.90;71.90;;;;;;6150051;23;20017;-75
2024/01/29 03:45:56;;;;;;;4.28;3.65;;;6.90;71.90;;;;;;6149743;23;20839;-74
2024/01/29 03:48:22;;;;;;;4.53;3.85;;;6.90;72.00;;;;;;6148651;23;20022;-76
2024/01/29 03:50:48;;;;;;;4.68;3.72;;;6.90;72.00;;;;;;6123678;23;20021;-74
2024/01/29 03:53:14;;;;;;;4.53;3.72;;;6.90;72.00;;;;;;6151779;23;20006;-74
2024/01/29 03:55:41;;;;;;;4.45;3.70;;;6.90;72.00;;;;;;6102154;23;20040;-75
2024/01/29 03:58:07;;;;;;;4.80;3.72;;;6.90;72.10;;;;;;6151572;23;20027;-74
2024/01/29 04:00:33;;;;;;;4.50;3.55;;;6.90;72.10;;;;;;6151149;23;20021;-76
2024/01/29 04:02:59;;;;;;;4.05;3.42;;;6.90;72.00;;;;;;6151793;23;20426;-75
2024/01/29 04:05:25;;;;;;;4.95;3.72;;;6.90;71.80;;;;;;6100666;23;20060;-74
2024/01/29 04:07:51;;;;;;;5.68;4.13;;;6.90;71.60;;;;;;6152319;23;20041;-74
2024/01/29 04:10:17;;;;;;;4.53;4.00;;;6.90;71.50;;;;;;6151061;23;20024;-74
2024/01/29 04:12:43;;;;;;;4.68;3.95;;;6.90;71.60;;;;;;6151623;23;20017;-74
2024/01/29 04:15:10;;;;;;;5.45;3.78;;;6.90;71.40;;;;;;6151070;23;20025;-74
2024/01/29 04:17:36;;;;;;;4.72;3.63;;;6.90;71.40;;;;;;6151593;23;20013;-74
2024/01/29 04:20:06;;;;;;;5.25;4.15;;;6.90;71.30;;;;;;6151885;23;20021;-74
2024/01/29 04:22:32;;;;;;;4.70;3.80;;;6.90;71.20;;;;;;6150096;23;20076;-74
2024/01/29 04:25:08;;;;;;;4.72;4.05;;;6.90;71.20;;;;;;6153037;23;20049;-73
2024/01/29 04:27:34;;;;;;;4.55;3.85;;;6.90;71.00;;;;;;6127195;23;20022;-76
2024/01/29 04:30:02;;;;;;;4.15;3.63;;;6.90;70.80;;;;;;6153404;23;20746;-74
2024/01/29 04:32:30;;;;;;;5.85;3.88;;;6.90;70.70;;;;;;6127125;23;20017;-74
2024/01/29 04:34:56;;;;;;;4.97;3.85;;;6.90;70.60;;;;;;6153620;23;20016;-75
2024/01/29 04:37:23;;;;;;;5.00;4.13;;;6.90;70.60;;;;;;6153517;23;20096;-76
2024/01/29 04:39:49;;;;;;;5.38;4.20;;;6.90;70.60;;;;;;6151403;23;20022;-75
2024/01/29 04:42:15;;;;;;;4.40;3.97;;;6.90;70.20;;;;;;6152174;23;20025;-75
2024/01/29 04:44:41;;;;;;;5.70;4.35;;;6.90;70.10;;;;;;6153094;23;20013;-75
2024/01/29 04:47:07;;;;;;;4.97;4.22;;;6.90;70.40;;;;;;6153059;23;20013;-74
2024/01/29 04:49:33;;;;;;;5.65;4.43;;;6.90;70.20;;;;;;6153085;23;20594;-72
2024/01/29 04:52:00;;;;;;;4.90;4.20;;;6.80;70.20;;;;;;6153102;23;20082;-75
2024/01/29 04:54:26;;;;;;;5.88;4.60;;;6.80;70.10;;;;;;6153013;23;20036;-74
2024/01/29 04:56:52;;;;;;;5.32;4.22;;;6.90;70.20;;;;;;6153319;23;20453;-74
2024/01/29 04:59:18;;;;;;;4.70;3.80;;;6.80;70.10;;;;;;6126676;23;20520;-74
2024/01/29 05:01:45;;;;;;;6.07;4.28;;;6.80;70.70;;;;;;6127756;23;20005;-72
2024/01/29 05:04:11;;;;;;;5.20;4.57;;;6.80;70.10;;;;;;6153163;23;20018;-74
2024/01/29 05:06:37;;;;;;;5.80;4.45;;;6.80;70.10;;;;;;6126402;23;20025;-73
2024/01/29 05:09:03;;;;;;;6.63;4.78;;;6.80;70.10;;;;;;6153197;23;20013;-75
2024/01/29 05:11:29;;;;;;;5.85;4.65;;;6.80;70.60;;;;;;6126782;23;20221;-74
2024/01/29 05:13:55;;;;;;;4.78;3.95;;;6.80;71.10;;;;;;6152266;23;20005;-76
2024/01/29 05:16:21;;;;;;;7.20;5.03;;;6.80;72.20;;;;;;6127127;23;20026;-75
2024/01/29 05:18:49;;;;;;;6.95;5.25;;;6.80;71.90;;;;;;6153135;23;20015;-76
2024/01/29 05:21:15;;;;;;;8.00;5.53;;;6.80;72.00;;;;;;6150946;23;20018;-76
2024/01/29 05:23:41;;;;;;;8.23;5.78;;;6.80;72.10;;;;;;6152803;23;20013;-74
2024/01/29 05:26:07;;;;;;;8.77;5.70;;;6.80;72.10;;;;;;6153480;23;20041;-75
2024/01/29 05:28:33;;;;;;;8.20;5.88;;;6.80;72.10;;;;;;6153276;23;20065;-75
2024/01/29 05:30:59;;;;;;;7.53;5.68;;;6.80;72.10;;;;;;6151202;23;20060;-75
2024/01/29 05:33:25;;;;;;;8.20;5.35;;;6.80;72.30;;;;;;6126327;23;20029;-74
2024/01/29 05:35:51;;;;;;;5.80;5.05;;;6.80;72.30;;;;;;6152181;23;20014;-75
2024/01/29 05:38:18;;;;;;;6.63;5.00;;;6.80;72.30;;;;;;6152758;23;20014;-74
2024/01/29 05:40:45;;;;;;;6.63;4.88;;;6.80;72.30;;;;;;6153032;23;20532;-74
2024/01/29 05:43:10;;;;;;;6.20;4.72;;;6.80;72.30;;;;;;6152507;23;20052;-74
2024/01/29 05:45:36;;;;;;;14.98;5.35;;;6.80;72.30;;;;;;6126290;23;20041;-75
2024/01/29 05:48:06;;;;;;;5.85;4.32;;;6.80;72.30;;;;;;6126533;23;20524;-74
2024/01/29 05:50:33;;;;;;;6.55;4.85;;;6.80;72.30;;;;;;6126433;23;20016;-75
2024/01/29 05:52:59;;;;;;;5.80;4.88;;;6.80;72.30;;;;;;6151946;23;20056;-75
2024/01/29 05:55:25;;;;;;;5.38;4.25;;;6.80;72.30;;;;;;6151190;23;20021;-75
2024/01/29 05:57:51;;;;;;;6.18;4.28;;;6.80;72.20;;;;;;6126769;23;20019;-74
2024/01/29 06:00:18;;;;;;;6.85;4.22;;;6.80;72.20;;;;;;6150460;23;20021;-75
2024/01/29 06:02:46;;;;;;;5.68;4.57;;;6.80;72.10;;;;;;6152310;23;20349;-74
2024/01/29 06:05:12;;;;;;;7.50;4.35;;;6.80;72.20;;;;;;6150530;23;20021;-75
2024/01/29 06:07:40;;;;;;;5.50;4.13;;;6.80;72.10;;;;;;6150633;23;20334;-75
2024/01/29 06:10:08;;;;;;;8.23;4.05;;;6.80;72.20;;;;;;6148812;23;20044;-73
2024/01/29 06:12:34;;;;;;;6.55;4.38;;;6.80;72.10;;;;;;6124766;23;20028;-75
2024/01/29 06:15:01;;;;;;;5.40;4.30;;;6.80;72.10;;;;;;6151070;23;20027;-75
2024/01/29 06:17:28;;;;;;;5.65;3.97;;;6.80;72.10;;;;;;6150985;23;20037;-76
2024/01/29 06:19:54;;;;;;;5.97;4.28;;;6.80;72.00;;;;;;6151444;23;20092;-74
2024/01/29 06:22:20;;;;;;;5.57;4.20;;;6.80;71.90;;;;;;6151825;23;20473;-77
2024/01/29 06:24:46;;;;;;;6.28;4.45;;;6.80;71.90;;;;;;6126304;23;20100;-75
2024/01/29 06:27:12;;;;;;;7.75;4.05;;;6.80;72.60;;;;;;6152217;23;20021;-77
2024/01/29 06:29:38;;;;;;;4.47;3.50;;;6.80;74.50;;;;;;6124689;23;20667;-77
2024/01/29 06:32:05;;;;;;;5.22;3.80;;;6.80;76.40;;;;;;6102358;23;20101;-77
2024/01/29 06:34:33;;;;;;;4.88;3.75;;;6.90;78.10;;;;;;6102500;23;20353;-80
2024/01/29 06:36:59;;;;;;;5.85;3.92;;;6.90;79.10;;;;;;6151693;23;20434;-78
2024/01/29 06:39:25;;;;;;;5.50;3.83;;;7.00;80.90;;;;;;6152407;23;20577;-78
2024/01/29 06:41:51;;;;;;;4.60;3.20;;;7.00;82.00;;;;;;6151000;23;20021;-77
2024/01/29 06:44:17;;;;;;;6.25;3.88;;;7.00;82.80;;;;;;6152078;23;20009;-78
2024/01/29 06:46:43;;;;;;;4.57;3.22;;;7.10;83.50;;;;;;6153134;23;20014;-79
2024/01/29 06:49:27;;;;;;;5.60;3.92;;;7.10;83.60;;;;;;6152928;23;20140;-77
2024/01/29 06:51:54;;;;;;;6.47;4.00;;;7.10;84.10;;;;;;6150776;23;20048;-77
2024/01/29 06:54:22;;;;;;;5.57;4.25;;;7.20;84.30;;;;;;6151372;23;20025;-78
2024/01/29 06:56:48;;;;;;;4.28;3.20;;;7.20;84.40;;;;;;6126841;23;20500;-79
2024/01/29 06:59:14;;;;;;;6.25;3.95;;;7.20;85.40;;;;;;6126193;23;20009;-78
2024/01/29 07:01:40;;;;;;;5.07;3.28;;;7.30;84.70;;;;;;6153144;23;20442;-78
2024/01/29 07:04:06;;;;;;;4.20;3.25;;;7.30;84.50;;;;;;6101596;23;20025;-78
2024/01/29 07:06:32;;;;;;;8.15;3.90;;;7.30;84.60;;;;;;6152718;23;20345;-79
2024/01/29 07:08:58;;;;;;;5.28;3.20;;;7.40;84.70;;;;;;6126743;23;20017;-78
2024/01/29 07:11:24;;;;;;;4.35;3.55;;;7.40;84.70;;;;;;6125090;23;20015;-78
2024/01/29 07:13:50;;;;;;;4.93;3.42;;;7.40;84.60;;;;;;6125740;23;20049;-77
2024/01/29 07:16:16;;;;;;;4.40;3.20;;;7.50;84.60;;;;;;6100672;23;20020;-77
2024/01/29 07:18:42;;;;;;;4.63;3.20;;;7.50;84.60;;;;;;6151537;23;20021;-77
2024/01/29 07:21:11;;;;;;;4.63;3.28;;;7.50;84.40;;;;;;6125899;23;20013;-77
2024/01/29 07:23:37;;;;;;;3.80;3.30;;;7.60;84.60;;;;;;6149257;23;20013;-79
2024/01/29 07:26:03;;;;;;;3.67;3.17;;;7.60;84.40;;;;;;6148499;23;20021;-76
2024/01/29 07:28:31;;;;;;;3.92;3.13;;;7.60;84.40;;;;;;6125173;23;20063;-79
2024/01/29 07:30:57;;;;;;;3.58;3.15;;;7.60;84.40;;;;;;6149879;23;20040;-79
2024/01/29 07:33:23;;;;;;;4.18;3.28;;;7.70;84.50;;;;;;6149557;23;20373;-78
2024/01/29 07:35:49;;;;;;;4.47;3.38;;;7.70;84.20;;;;;;6149563;23;20460;-79
2024/01/29 07:38:15;;;;;;;7.15;3.67;;;7.70;84.40;;;;;;6149261;23;20794;-79
2024/01/29 07:40:41;;;;;;;5.28;3.60;;;7.70;84.20;;;;;;6149989;23;20471;-78
2024/01/29 07:43:07;;;;;;;6.57;3.78;;;7.70;84.20;;;;;;6124702;23;20033;-78
2024/01/29 07:45:34;;;;;;;3.72;3.30;;;7.80;84.30;;;;;;6099933;23;20017;-79
2024/01/29 07:48:00;;;;;;;4.93;3.50;;;7.80;84.40;;;;;;6100636;23;20021;-79
2024/01/29 07:50:26;;;;;;;6.13;3.60;;;7.90;84.30;;;;;;6151078;23;20484;-79
2024/01/29 07:52:52;;;;;;;4.18;3.33;;;7.90;84.50;;;;;;6149961;23;20005;-78
2024/01/29 07:55:19;;;;;;;6.07;3.75;;;7.90;84.50;;;;;;6125011;23;20104;-78
2024/01/29 07:57:45;;;;;;;4.97;3.58;;;7.90;84.50;;;;;;6151203;23;20048;-80
2024/01/29 08:00:13;;;;;;;5.50;3.63;;;7.90;84.40;;;;;;6151683;23;20485;-79
2024/01/29 08:02:38;;;;;;;4.35;3.50;;;8.00;84.90;;;;;;6153042;23;20024;-80
2024/01/29 08:05:05;;;;;;;5.07;3.75;;;8.00;84.90;;;;;;6127209;23;20014;-79
2024/01/29 08:07:31;;;;;;;5.55;3.45;;;8.00;84.80;;;;;;6153773;23;20024;-79
2024/01/29 08:10:00;;;;;;;4.85;3.42;;;8.00;85.00;;;;;;6150997;23;20739;-78
2024/01/29 08:12:27;;;;;;;3.83;3.20;;;8.10;84.90;;;;;;6152417;23;20017;-78
2024/01/29 08:14:53;;;;;;;5.50;3.33;;;8.10;84.70;;;;;;6150879;23;20013;-78
2024/01/29 08:17:31;;;;;;;;;;;;;;;;;;;;;
2024/01/29 08:20:44;;;;;;;;;;;;;;;;;;;;;
2024/01/29 08:24:07;;;;;;;4.97;3.30;;;8.20;84.60;;;;;;5992054;23;20015;-79
2024/01/29 08:27:11;;;;;;;;;;;8.20;84.60;;;;;;5899685;24;20042;-79
2024/01/29 08:34:33;;;;;;;;;;;;;;;;;;;;;
2024/01/29 08:41:14;;;;;;;4.45;3.70;;;8.30;84.90;;;;;;5749180;24;20054;-78
2024/01/29 08:44:55;;;;;;;;;;;;;;;;;;;;;
2024/01/29 08:47:59;;;;;;;5.68;3.50;;;8.30;84.70;;;;;;5712037;25;20038;-79
2024/01/29 09:03:40;;;;;;;4.53;3.38;;;8.50;84.70;;;;;;5700037;25;20031;-79
2024/01/29 09:06:42;;;;;;;4.38;3.38;;;8.50;84.50;;;;;;5701463;25;20063;-78
2024/01/29 09:10:13;;;;;;;5.10;3.65;;;8.50;84.30;;;;;;5720523;24;20027;-79
2024/01/29 09:13:43;;;;;;;5.03;3.40;;;8.50;84.30;;;;;;5742943;24;20118;-79
2024/01/29 09:27:53;;;;;;;3.90;3.40;;;8.70;84.00;;;;;;5099092;27;20434;-78
2024/01/29 09:30:19;;;;;;;4.28;3.67;;;8.80;84.10;;;;;;5058058;28;20066;-77
2024/01/29 09:32:45;;;;;;;4.43;3.50;;;8.80;84.20;;;;;;5061943;28;20032;-76
2024/01/29 09:35:11;;;;;;;5.88;4.40;;;8.80;84.40;;;;;;5058839;28;20035;-77
2024/01/29 09:37:39;;;;;;;4.93;3.80;;;8.80;84.30;;;;;;5055112;28;20573;-77
2024/01/29 09:40:10;;;;;;;4.55;3.50;;;8.80;84.10;;;;;;5060389;28;20094;-76
2024/01/29 09:42:38;;;;;;;5.22;3.88;;;8.80;83.90;;;;;;5059441;28;20033;-77
2024/01/29 09:45:08;;;;;;;5.93;4.28;;;8.80;83.80;;;;;;5060982;28;20066;-75
2024/01/29 09:47:36;;;;;;;4.53;3.83;;;8.80;83.50;;;;;;5060047;28;20065;-77
2024/01/29 09:50:05;;;;;;;7.18;4.40;;;8.80;83.30;;;;;;5066363;28;20020;-77
2024/01/29 09:52:33;;;;;;;4.40;3.88;;;8.80;83.40;;;;;;5059753;28;20032;-77
2024/01/29 09:54:59;;;;;;;5.38;3.88;;;8.80;83.10;;;;;;5072439;28;20033;-78
2024/01/29 09:57:25;;;;;;;5.03;3.90;;;8.80;83.00;;;;;;5063397;28;20041;-78
2024/01/29 09:59:51;;;;;;;5.70;4.28;;;8.80;82.80;;;;;;5059091;28;20120;-78
2024/01/29 10:02:19;;;;;;;6.68;4.95;;;8.80;83.40;;;;;;5050444;28;20036;-78
2024/01/29 10:04:45;;;;;;;5.13;4.40;;;8.80;82.80;;;;;;5045785;28;20036;-78
2024/01/29 10:07:12;;;;;;;7.07;4.32;;;8.80;82.70;;;;;;5062834;28;20044;-77
2024/01/29 10:09:38;;;;;;;5.53;4.35;;;8.80;82.50;;;;;;5058438;28;20027;-77
2024/01/29 10:12:05;;;;;;;5.88;4.25;;;8.80;82.60;;;;;;5057795;28;20067;-76
2024/01/29 10:14:31;;;;;;;6.00;4.20;;;8.80;82.60;;;;;;5061711;28;20136;-76
2024/01/29 10:16:57;;;;;;;7.07;4.38;;;8.80;82.40;;;;;;5055333;28;20029;-78
2024/01/29 10:19:23;;;;;;;3.90;3.50;;;8.90;82.50;;;;;;5059008;28;20036;-78
2024/01/29 10:21:49;;;;;;;6.25;4.57;;;8.80;82.20;;;;;;5059947;28;20032;-76
2024/01/29 10:24:16;;;;;;;4.85;3.85;;;8.90;82.30;;;;;;5048771;28;20025;-78
2024/01/29 10:26:43;;;;;;;5.20;3.45;;;8.90;82.20;;;;;;5057444;28;20098;-78
2024/01/29 10:29:10;;;;;;;4.47;3.70;;;8.90;82.40;;;;;;5043039;28;20035;-77
2024/01/29 10:31:37;;;;;;;6.03;3.65;;;8.80;82.30;;;;;;5050186;28;20072;-78
2024/01/29 10:34:05;;;;;;;5.82;3.92;;;8.90;82.20;;;;;;5048282;28;20491;-78
2024/01/29 10:36:31;;;;;;;4.43;3.58;;;8.90;82.30;;;;;;5043573;28;20045;-77
2024/01/29 10:38:59;;;;;;;5.53;3.80;;;8.90;82.10;;;;;;5045779;28;20564;-77
2024/01/29 10:41:26;;;;;;;5.07;3.80;;;8.90;82.00;;;;;;5051156;28;20721;-77
2024/01/29 10:43:53;;;;;;;4.65;3.65;;;8.90;82.00;;;;;;5047132;28;20060;-78
2024/01/29 10:46:20;;;;;;;5.18;3.65;;;8.90;81.90;;;;;;5043828;28;20081;-77
2024/01/29 10:48:51;;;;;;;4.60;3.90;;;8.90;82.30;;;;;;5045093;28;20032;-77
2024/01/29 10:51:18;;;;;;;4.78;3.92;;;8.90;81.60;;;;;;5046104;28;20042;-77
2024/01/29 10:53:47;;;;;;;5.25;4.10;;;8.80;81.40;;;;;;5045808;28;20104;-77
2024/01/29 10:56:15;;;;;;;5.53;4.18;;;8.80;81.50;;;;;;5045646;28;20037;-76
2024/01/29 10:58:42;;;;;;;6.00;4.30;;;8.90;82.20;;;;;;5046140;28;20036;-77
2024/01/29 11:01:10;;;;;;;4.13;3.60;;;8.90;81.70;;;;;;5044805;28;20551;-78
2024/01/29 11:03:37;;;;;;;5.60;4.10;;;8.90;81.70;;;;;;5045007;28;20540;-77
2024/01/29 11:06:22;;;;;;;4.57;3.88;;;8.90;81.60;;;;;;5044225;28;20040;-77
2024/01/29 11:08:54;;;;;;;4.67;4.00;;;8.90;81.60;;;;;;5046458;28;20033;-78
2024/01/29 11:11:23;;;;;;;4.95;3.72;;;8.90;81.80;;;;;;5048775;28;20028;-77
2024/01/29 11:13:50;;;;;;;5.45;3.60;;;8.90;81.80;;;;;;5043291;28;20067;-77
2024/01/29 11:16:16;;;;;;;5.38;3.30;;;8.90;81.60;;;;;;5043541;28;20056;-76
2024/01/29 11:18:42;;;;;;;3.85;3.42;;;8.90;81.50;;;;;;5047493;28;20471;-76
2024/01/29 11:21:14;;;;;;;3.85;3.42;;;8.90;81.30;;;;;;5047841;28;20419;-77
2024/01/29 11:23:43;;;;;;;6.25;4.00;;;8.90;81.30;;;;;;5043926;28;20395;-76
2024/01/29 11:26:14;;;;;;;5.28;3.72;;;8.90;81.20;;;;;;5042051;28;20078;-76
2024/01/29 11:28:41;;;;;;;3.28;2.85;;;8.90;81.30;;;;;;5048115;28;20086;-78
2024/01/29 11:31:12;;;;;;;4.15;3.25;;;8.90;82.00;;;;;;5048900;28;20569;-76
2024/01/29 11:33:38;;;;;;;3.28;2.97;;;8.90;81.40;;;;;;5050130;28;20044;-76
2024/01/29 11:36:23;;;;;;;4.18;3.35;;;9.00;81.30;;;;;;5048809;28;20040;-77
2024/01/29 11:38:49;;;;;;;3.72;3.10;;;8.90;81.50;;;;;;5040541;28;20037;-76
2024/01/29 11:41:18;;;;;;;3.90;3.38;;;9.00;81.50;;;;;;5045749;28;20087;-76
2024/01/29 11:43:45;;;;;;;4.63;3.50;;;8.90;81.20;;;;;;5050151;28;20033;-76
2024/01/29 11:46:13;;;;;;;3.83;3.42;;;9.00;81.30;;;;;;5051753;28;20442;-77
2024/01/29 11:48:40;;;;;;;3.60;2.97;;;9.00;81.20;;;;;;5044786;28;20483;-77
2024/01/29 11:51:06;;;;;;;3.65;3.20;;;9.00;81.30;;;;;;5045013;28;20558;-77
2024/01/29 11:53:34;;;;;;;3.38;2.75;;;9.00;81.30;;;;;;5043839;28;20029;-77
2024/01/29 11:56:00;;;;;;;5.50;4.10;;;9.00;81.10;;;;;;5044854;28;20056;-77
2024/01/29 11:58:27;;;;;;;4.05;3.55;;;9.00;80.90;;;;;;5041968;28;20415;-77
2024/01/29 12:00:53;;;;;;;4.47;3.17;;;8.90;80.70;;;;;;5045075;28;20526;-76
2024/01/29 12:03:24;;;;;;;4.05;3.42;;;9.00;80.70;;;;;;5044257;28;20033;-77
2024/01/29 12:05:53;;;;;;;3.53;3.15;;;9.00;80.70;;;;;;5044941;28;20033;-76
2024/01/29 12:08:26;;;;;;;4.88;3.50;;;8.90;80.80;;;;;;5043126;28;20025;-78
2024/01/29 12:10:58;;;;;;;4.55;3.50;;;9.00;81.00;;;;;;5039846;28;20035;-76
2024/01/29 12:13:24;;;;;;;4.15;3.70;;;9.00;81.00;;;;;;5041918;28;20033;-77
2024/01/29 12:15:55;;;;;;;3.85;3.45;;;8.90;80.80;;;;;;5045141;28;20063;-77
2024/01/29 12:18:24;;;;;;;4.13;3.20;;;9.00;80.80;;;;;;5041276;28;20403;-77
2024/01/29 12:20:51;;;;;;;4.80;3.50;;;9.00;80.80;;;;;;5045317;28;20123;-77
2024/01/29 12:23:20;;;;;;;5.10;3.65;;;9.00;80.80;;;;;;5045984;28;20057;-77
2024/01/29 12:25:53;;;;;;;6.22;3.42;;;8.90;80.80;;;;;;5039962;28;20053;-78
2024/01/29 12:28:20;;;;;;;4.50;3.72;;;9.00;81.00;;;;;;5043348;28;20084;-78
2024/01/29 12:30:56;;;;;;;4.68;3.60;;;8.90;80.90;;;;;;5041736;28;20076;-78
2024/01/29 12:33:28;;;;;;;4.53;3.60;;;9.00;80.80;;;;;;5042451;28;20748;-78
2024/01/29 12:36:14;;;;;;;3.72;3.42;;;8.90;80.90;;;;;;5042326;28;21351;-77
2024/01/29 12:38:41;;;;;;;4.38;3.72;;;8.90;80.90;;;;;;5041801;28;20066;-77
2024/01/29 12:41:07;;;;;;;4.20;3.50;;;9.00;80.70;;;;;;5046037;28;20056;-77
2024/01/29 12:43:33;;;;;;;5.18;3.90;;;8.90;80.70;;;;;;5044198;28;20472;-78
2024/01/29 12:46:12;;;;;;;3.55;3.25;;;8.90;80.70;;;;;;5041757;28;20496;-78
2024/01/29 12:48:38;;;;;;;5.03;3.42;;;8.90;80.70;;;;;;5041930;28;20053;-78
2024/01/29 12:51:07;;;;;;;4.65;3.63;;;8.90;80.80;;;;;;5040348;28;20033;-78
2024/01/29 12:53:33;;;;;;;4.47;3.53;;;8.90;80.70;;;;;;5042691;28;20767;-77
2024/01/29 12:55:59;;;;;;;4.78;3.72;;;8.90;80.70;;;;;;5042304;28;20037;-77
2024/01/29 12:58:25;;;;;;;5.15;3.90;;;8.90;80.80;;;;;;5040398;28;20037;-79
2024/01/29 13:00:51;;;;;;;4.43;3.58;;;8.90;80.90;;;;;;5039927;28;20079;-79
2024/01/29 13:03:18;;;;;;;4.03;3.58;;;8.90;80.80;;;;;;5042334;28;20040;-79
2024/01/29 13:05:45;;;;;;;5.05;3.83;;;8.90;80.90;;;;;;5039788;28;20040;-79
2024/01/29 13:08:11;;;;;;;7.40;4.00;;;8.90;80.70;;;;;;5046352;28;20542;-78
2024/01/29 13:10:37;;;;;;;5.32;4.25;;;8.90;80.90;;;;;;5039808;28;20399;-78
2024/01/29 13:13:07;;;;;;;5.35;4.03;;;8.90;81.00;;;;;;5041688;28;20037;-77
2024/01/29 13:15:34;;;;;;;4.13;3.72;;;8.90;80.90;;;;;;5041214;28;20056;-78
2024/01/29 13:18:00;;;;;;;5.50;3.70;;;8.90;81.60;;;;;;5038225;28;20043;-77
2024/01/29 13:20:26;;;;;;;4.43;3.63;;;8.90;81.10;;;;;;5041602;28;20462;-77
2024/01/29 13:22:53;;;;;;;4.80;4.13;;;8.90;81.10;;;;;;5040903;28;20129;-77
2024/01/29 13:25:19;;;;;;;5.82;4.10;;;8.90;81.00;;;;;;5031166;28;20037;-77
2024/01/29 13:27:45;;;;;;;5.00;4.18;;;8.80;80.90;;;;;;5041661;28;20060;-77
2024/01/29 13:30:12;;;;;;;4.00;3.38;;;8.80;80.90;;;;;;5042812;28;20048;-78
2024/01/29 13:32:41;;;;;;;7.00;3.78;;;8.80;80.70;;;;;;5043032;28;20028;-77
2024/01/29 13:35:07;;;;;;;4.80;3.80;;;8.80;80.70;;;;;;5044154;28;20574;-77
2024/01/29 13:37:34;;;;;;;4.75;4.00;;;8.80;80.80;;;;;;5040990;28;20462;-76
2024/01/29 13:40:00;;;;;;;5.60;4.05;;;8.90;80.70;;;;;;5037888;28;20128;-76
2024/01/29 13:42:26;;;;;;;5.22;4.13;;;8.80;80.60;;;;;;5040954;28;20048;-76